sensor_id;sensor_type;location;lat;lon;timestamp;P1;durP1;ratioP1;P2;durP2;ratioP2
42246;SDS011;27913;42.722;23.268;2022-11-20T00:00:02;3.05;;;0.85;;
42246;SDS011;27913;42.722;23.268;2022-11-20T00:02:29;3.38;;;0.77;;
42246;SDS011;27913;42.722;23.268;2022-11-20T00:04:54;3.80;;;0.70;;
42246;SDS011;27913;42.722;23.268;2022-11-20T00:07:20;3.92;;;0.77;;
42246;SDS011;27913;42.722;23.268;2022-11-20T00:09:45;3.08;;;0.60;;
42246;SDS011;27913;42.722;23.268;2022-11-20T00:12:11;2.30;;;0.32;;
42246;SDS011;27913;42.722;23.268;2022-11-20T00:14:36;3.03;;;0.40;;
42246;SDS011;27913;42.722;23.268;2022-11-20T00:17:02;3.05;;;0.80;;
42246;SDS011;27913;42.722;23.268;2022-11-20T00:19:27;4.32;;;1.05;;
42246;SDS011;27913;42.722;23.268;2022-11-20T00:21:53;3.83;;;0.60;;
42246;SDS011;27913;42.722;23.268;2022-11-20T00:24:20;4.95;;;1.10;;
42246;SDS011;27913;42.722;23.268;2022-11-20T00:26:46;3.53;;;0.60;;
42246;SDS011;27913;42.722;23.268;2022-11-20T00:29:11;1.17;;;0.57;;
42246;SDS011;27913;42.722;23.268;2022-11-20T00:31:37;1.98;;;0.40;;
42246;SDS011;27913;42.722;23.268;2022-11-20T00:34:03;1.83;;;0.43;;
42246;SDS011;27913;42.722;23.268;2022-11-20T00:36:31;2.17;;;0.47;;
42246;SDS011;27913;42.722;23.268;2022-11-20T00:38:58;0.95;;;0.40;;
42246;SDS011;27913;42.722;23.268;2022-11-20T00:41:24;3.13;;;0.55;;
42246;SDS011;27913;42.722;23.268;2022-11-20T00:43:51;6.35;;;0.70;;
42246;SDS011;27913;42.722;23.268;2022-11-20T00:46:19;2.88;;;0.70;;
42246;SDS011;27913;42.722;23.268;2022-11-20T00:48:46;5.10;;;1.02;;
42246;SDS011;27913;42.722;23.268;2022-11-20T00:51:13;6.63;;;0.90;;
42246;SDS011;27913;42.722;23.268;2022-11-20T00:53:43;2.90;;;0.68;;
42246;SDS011;27913;42.722;23.268;2022-11-20T00:56:09;3.95;;;0.55;;
42246;SDS011;27913;42.722;23.268;2022-11-20T00:58:38;4.07;;;0.80;;
42246;SDS011;27913;42.722;23.268;2022-11-20T01:03:40;3.75;;;0.85;;
42246;SDS011;27913;42.722;23.268;2022-11-20T01:06:10;4.32;;;0.70;;
42246;SDS011;27913;42.722;23.268;2022-11-20T01:08:40;1.35;;;0.60;;
42246;SDS011;27913;42.722;23.268;2022-11-20T01:11:25;3.67;;;1.00;;
42246;SDS011;27913;42.722;23.268;2022-11-20T01:13:53;2.58;;;0.80;;
42246;SDS011;27913;42.722;23.268;2022-11-20T01:16:21;2.08;;;0.60;;
42246;SDS011;27913;42.722;23.268;2022-11-20T01:18:52;3.85;;;0.73;;
42246;SDS011;27913;42.722;23.268;2022-11-20T01:21:26;2.03;;;0.60;;
42246;SDS011;27913;42.722;23.268;2022-11-20T01:23:53;2.78;;;0.70;;
42246;SDS011;27913;42.722;23.268;2022-11-20T01:26:29;2.00;;;0.60;;
42246;SDS011;27913;42.722;23.268;2022-11-20T01:28:57;2.47;;;0.50;;
42246;SDS011;27913;42.722;23.268;2022-11-20T01:31:24;3.03;;;0.50;;
42246;SDS011;27913;42.722;23.268;2022-11-20T01:36:22;4.95;;;0.82;;
42246;SDS011;27913;42.722;23.268;2022-11-20T01:38:52;2.30;;;0.43;;
42246;SDS011;27913;42.722;23.268;2022-11-20T01:41:25;3.78;;;0.57;;
42246;SDS011;27913;42.722;23.268;2022-11-20T01:44:11;1.35;;;0.40;;
42246;SDS011;27913;42.722;23.268;2022-11-20T01:46:40;2.75;;;0.60;;
42246;SDS011;27913;42.722;23.268;2022-11-20T01:49:17;4.10;;;0.70;;
42246;SDS011;27913;42.722;23.268;2022-11-20T01:51:54;1.65;;;0.55;;
42246;SDS011;27913;42.722;23.268;2022-11-20T01:54:28;3.33;;;0.73;;
42246;SDS011;27913;42.722;23.268;2022-11-20T01:57:03;3.60;;;0.65;;
42246;SDS011;27913;42.722;23.268;2022-11-20T01:59:32;2.03;;;0.60;;
42246;SDS011;27913;42.722;23.268;2022-11-20T02:01:58;1.40;;;0.50;;
42246;SDS011;27913;42.722;23.268;2022-11-20T02:04:24;4.85;;;0.50;;
42246;SDS011;27913;42.722;23.268;2022-11-20T02:06:57;3.30;;;0.45;;
42246;SDS011;27913;42.722;23.268;2022-11-20T02:09:25;4.53;;;0.60;;
42246;SDS011;27913;42.722;23.268;2022-11-20T02:11:51;1.77;;;0.47;;
42246;SDS011;27913;42.722;23.268;2022-11-20T02:14:17;1.40;;;0.50;;
42246;SDS011;27913;42.722;23.268;2022-11-20T02:16:45;1.40;;;0.50;;
42246;SDS011;27913;42.722;23.268;2022-11-20T02:19:22;1.40;;;0.50;;
42246;SDS011;27913;42.722;23.268;2022-11-20T02:24:20;1.80;;;0.40;;
42246;SDS011;27913;42.722;23.268;2022-11-20T02:26:57;1.95;;;0.50;;
42246;SDS011;27913;42.722;23.268;2022-11-20T02:32:30;1.75;;;0.50;;
42246;SDS011;27913;42.722;23.268;2022-11-20T02:34:58;3.95;;;0.60;;
42246;SDS011;27913;42.722;23.268;2022-11-20T02:37:32;1.85;;;0.50;;
42246;SDS011;27913;42.722;23.268;2022-11-20T02:42:27;4.47;;;0.70;;
42246;SDS011;27913;42.722;23.268;2022-11-20T02:44:53;2.40;;;0.80;;
42246;SDS011;27913;42.722;23.268;2022-11-20T02:47:18;2.20;;;0.70;;
42246;SDS011;27913;42.722;23.268;2022-11-20T02:49:44;1.58;;;0.40;;
42246;SDS011;27913;42.722;23.268;2022-11-20T02:52:09;2.83;;;0.70;;
42246;SDS011;27913;42.722;23.268;2022-11-20T02:54:35;5.18;;;0.88;;
42246;SDS011;27913;42.722;23.268;2022-11-20T02:57:00;3.60;;;1.05;;
42246;SDS011;27913;42.722;23.268;2022-11-20T02:59:26;3.00;;;0.70;;
42246;SDS011;27913;42.722;23.268;2022-11-20T03:01:52;6.28;;;1.00;;
42246;SDS011;27913;42.722;23.268;2022-11-20T03:04:17;3.38;;;0.85;;
42246;SDS011;27913;42.722;23.268;2022-11-20T03:06:42;6.57;;;0.93;;
42246;SDS011;27913;42.722;23.268;2022-11-20T03:09:08;3.88;;;0.88;;
42246;SDS011;27913;42.722;23.268;2022-11-20T03:11:34;4.65;;;0.80;;
42246;SDS011;27913;42.722;23.268;2022-11-20T03:14:03;4.30;;;0.80;;
42246;SDS011;27913;42.722;23.268;2022-11-20T03:16:30;3.90;;;0.65;;
42246;SDS011;27913;42.722;23.268;2022-11-20T03:18:56;2.13;;;0.60;;
42246;SDS011;27913;42.722;23.268;2022-11-20T03:21:21;2.70;;;0.82;;
42246;SDS011;27913;42.722;23.268;2022-11-20T03:23:47;2.03;;;0.57;;
42246;SDS011;27913;42.722;23.268;2022-11-20T03:26:16;3.15;;;0.73;;
42246;SDS011;27913;42.722;23.268;2022-11-20T03:28:50;2.97;;;0.65;;
42246;SDS011;27913;42.722;23.268;2022-11-20T03:31:21;4.10;;;0.60;;
42246;SDS011;27913;42.722;23.268;2022-11-20T03:33:49;7.88;;;0.75;;
42246;SDS011;27913;42.722;23.268;2022-11-20T03:36:16;2.17;;;0.80;;
42246;SDS011;27913;42.722;23.268;2022-11-20T03:38:43;3.05;;;0.60;;
42246;SDS011;27913;42.722;23.268;2022-11-20T03:41:13;2.33;;;1.00;;
42246;SDS011;27913;42.722;23.268;2022-11-20T03:43:54;4.68;;;0.70;;
42246;SDS011;27913;42.722;23.268;2022-11-20T03:46:22;3.05;;;0.60;;
42246;SDS011;27913;42.722;23.268;2022-11-20T03:48:48;3.90;;;0.82;;
42246;SDS011;27913;42.722;23.268;2022-11-20T03:51:15;1.92;;;0.52;;
42246;SDS011;27913;42.722;23.268;2022-11-20T03:53:48;3.22;;;0.90;;
42246;SDS011;27913;42.722;23.268;2022-11-20T03:56:16;3.00;;;0.60;;
42246;SDS011;27913;42.722;23.268;2022-11-20T03:58:43;2.67;;;0.57;;
42246;SDS011;27913;42.722;23.268;2022-11-20T04:01:13;3.20;;;0.63;;
42246;SDS011;27913;42.722;23.268;2022-11-20T04:03:42;2.47;;;0.50;;
42246;SDS011;27913;42.722;23.268;2022-11-20T04:06:09;3.30;;;0.68;;
42246;SDS011;27913;42.722;23.268;2022-11-20T04:08:39;2.88;;;1.00;;
42246;SDS011;27913;42.722;23.268;2022-11-20T04:11:13;2.97;;;0.98;;
42246;SDS011;27913;42.722;23.268;2022-11-20T04:13:40;3.35;;;0.73;;
42246;SDS011;27913;42.722;23.268;2022-11-20T04:16:07;2.05;;;0.60;;
42246;SDS011;27913;42.722;23.268;2022-11-20T04:18:34;4.47;;;0.70;;
42246;SDS011;27913;42.722;23.268;2022-11-20T04:21:00;4.35;;;0.63;;
42246;SDS011;27913;42.722;23.268;2022-11-20T04:23:25;3.13;;;0.88;;
42246;SDS011;27913;42.722;23.268;2022-11-20T04:25:51;5.68;;;0.60;;
42246;SDS011;27913;42.722;23.268;2022-11-20T04:28:16;4.70;;;0.55;;
42246;SDS011;27913;42.722;23.268;2022-11-20T04:30:42;1.58;;;0.47;;
42246;SDS011;27913;42.722;23.268;2022-11-20T04:33:08;2.33;;;0.65;;
42246;SDS011;27913;42.722;23.268;2022-11-20T04:35:34;4.00;;;0.75;;
42246;SDS011;27913;42.722;23.268;2022-11-20T04:37:59;1.83;;;0.55;;
42246;SDS011;27913;42.722;23.268;2022-11-20T04:40:25;3.08;;;0.60;;
42246;SDS011;27913;42.722;23.268;2022-11-20T04:42:51;2.35;;;0.55;;
42246;SDS011;27913;42.722;23.268;2022-11-20T04:45:16;3.88;;;0.70;;
42246;SDS011;27913;42.722;23.268;2022-11-20T04:47:42;3.17;;;0.50;;
42246;SDS011;27913;42.722;23.268;2022-11-20T04:50:07;1.23;;;0.50;;
42246;SDS011;27913;42.722;23.268;2022-11-20T04:52:33;2.10;;;0.40;;
42246;SDS011;27913;42.722;23.268;2022-11-20T04:54:59;1.13;;;0.28;;
42246;SDS011;27913;42.722;23.268;2022-11-20T04:57:24;6.80;;;0.73;;
42246;SDS011;27913;42.722;23.268;2022-11-20T04:59:50;1.08;;;0.30;;
42246;SDS011;27913;42.722;23.268;2022-11-20T05:02:15;1.63;;;0.40;;
42246;SDS011;27913;42.722;23.268;2022-11-20T05:04:41;1.52;;;0.50;;
42246;SDS011;27913;42.722;23.268;2022-11-20T05:07:06;0.35;;;0.30;;
42246;SDS011;27913;42.722;23.268;2022-11-20T05:09:32;2.60;;;0.77;;
42246;SDS011;27913;42.722;23.268;2022-11-20T05:11:58;2.33;;;0.73;;
42246;SDS011;27913;42.722;23.268;2022-11-20T05:14:23;0.98;;;0.50;;
42246;SDS011;27913;42.722;23.268;2022-11-20T05:16:48;1.65;;;0.55;;
42246;SDS011;27913;42.722;23.268;2022-11-20T05:19:14;1.17;;;0.50;;
42246;SDS011;27913;42.722;23.268;2022-11-20T05:21:39;4.50;;;0.80;;
42246;SDS011;27913;42.722;23.268;2022-11-20T05:24:05;3.90;;;0.70;;
42246;SDS011;27913;42.722;23.268;2022-11-20T05:26:32;1.38;;;0.52;;
42246;SDS011;27913;42.722;23.268;2022-11-20T05:28:57;2.05;;;0.40;;
42246;SDS011;27913;42.722;23.268;2022-11-20T05:31:24;3.35;;;0.52;;
42246;SDS011;27913;42.722;23.268;2022-11-20T05:33:50;1.42;;;0.68;;
42246;SDS011;27913;42.722;23.268;2022-11-20T05:36:16;1.83;;;0.52;;
42246;SDS011;27913;42.722;23.268;2022-11-20T05:38:42;0.90;;;0.40;;
42246;SDS011;27913;42.722;23.268;2022-11-20T05:41:09;3.22;;;0.85;;
42246;SDS011;27913;42.722;23.268;2022-11-20T05:43:39;4.68;;;0.73;;
42246;SDS011;27913;42.722;23.268;2022-11-20T05:46:06;3.47;;;0.77;;
42246;SDS011;27913;42.722;23.268;2022-11-20T05:48:33;1.80;;;0.60;;
42246;SDS011;27913;42.722;23.268;2022-11-20T05:51:00;2.45;;;0.70;;
42246;SDS011;27913;42.722;23.268;2022-11-20T05:53:27;2.30;;;0.80;;
42246;SDS011;27913;42.722;23.268;2022-11-20T05:56:13;2.63;;;0.77;;
42246;SDS011;27913;42.722;23.268;2022-11-20T05:58:40;3.20;;;0.60;;
42246;SDS011;27913;42.722;23.268;2022-11-20T06:01:07;2.20;;;0.70;;
42246;SDS011;27913;42.722;23.268;2022-11-20T06:03:36;1.58;;;0.73;;
42246;SDS011;27913;42.722;23.268;2022-11-20T06:06:02;2.80;;;0.70;;
42246;SDS011;27913;42.722;23.268;2022-11-20T06:08:29;1.92;;;0.50;;
42246;SDS011;27913;42.722;23.268;2022-11-20T06:10:55;2.38;;;0.47;;
42246;SDS011;27913;42.722;23.268;2022-11-20T06:13:20;1.75;;;0.68;;
42246;SDS011;27913;42.722;23.268;2022-11-20T06:15:49;3.75;;;0.70;;
42246;SDS011;27913;42.722;23.268;2022-11-20T06:18:18;4.90;;;0.75;;
42246;SDS011;27913;42.722;23.268;2022-11-20T06:20:44;1.05;;;0.40;;
42246;SDS011;27913;42.722;23.268;2022-11-20T06:23:11;1.40;;;0.63;;
42246;SDS011;27913;42.722;23.268;2022-11-20T06:25:37;2.13;;;0.65;;
42246;SDS011;27913;42.722;23.268;2022-11-20T06:28:03;0.90;;;0.47;;
42246;SDS011;27913;42.722;23.268;2022-11-20T06:30:29;2.13;;;0.70;;
42246;SDS011;27913;42.722;23.268;2022-11-20T06:32:55;4.18;;;0.98;;
42246;SDS011;27913;42.722;23.268;2022-11-20T06:35:20;3.65;;;0.80;;
42246;SDS011;27913;42.722;23.268;2022-11-20T06:37:46;3.08;;;1.13;;
42246;SDS011;27913;42.722;23.268;2022-11-20T06:40:11;4.35;;;1.27;;
42246;SDS011;27913;42.722;23.268;2022-11-20T06:42:37;5.63;;;1.50;;
42246;SDS011;27913;42.722;23.268;2022-11-20T06:45:02;3.05;;;0.88;;
42246;SDS011;27913;42.722;23.268;2022-11-20T06:47:28;2.90;;;1.00;;
42246;SDS011;27913;42.722;23.268;2022-11-20T06:49:53;3.78;;;1.10;;
42246;SDS011;27913;42.722;23.268;2022-11-20T06:52:19;1.75;;;0.65;;
42246;SDS011;27913;42.722;23.268;2022-11-20T06:54:44;1.27;;;0.55;;
42246;SDS011;27913;42.722;23.268;2022-11-20T06:57:10;2.45;;;1.02;;
42246;SDS011;27913;42.722;23.268;2022-11-20T06:59:35;4.18;;;0.40;;
42246;SDS011;27913;42.722;23.268;2022-11-20T07:02:01;3.42;;;0.60;;
42246;SDS011;27913;42.722;23.268;2022-11-20T07:04:27;1.45;;;0.68;;
42246;SDS011;27913;42.722;23.268;2022-11-20T07:06:52;2.15;;;0.80;;
42246;SDS011;27913;42.722;23.268;2022-11-20T07:09:18;5.68;;;1.60;;
42246;SDS011;27913;42.722;23.268;2022-11-20T07:11:43;18.20;;;4.82;;
42246;SDS011;27913;42.722;23.268;2022-11-20T07:14:09;27.20;;;6.20;;
42246;SDS011;27913;42.722;23.268;2022-11-20T07:16:34;16.88;;;3.65;;
42246;SDS011;27913;42.722;23.268;2022-11-20T07:19:00;7.00;;;1.27;;
42246;SDS011;27913;42.722;23.268;2022-11-20T07:21:25;3.22;;;0.77;;
42246;SDS011;27913;42.722;23.268;2022-11-20T07:23:51;27.45;;;9.02;;
42246;SDS011;27913;42.722;23.268;2022-11-20T07:26:16;20.33;;;6.85;;
42246;SDS011;27913;42.722;23.268;2022-11-20T07:28:43;21.77;;;7.55;;
42246;SDS011;27913;42.722;23.268;2022-11-20T07:31:10;23.08;;;9.02;;
42246;SDS011;27913;42.722;23.268;2022-11-20T07:33:37;17.83;;;7.68;;
42246;SDS011;27913;42.722;23.268;2022-11-20T07:36:02;6.15;;;1.52;;
42246;SDS011;27913;42.722;23.268;2022-11-20T07:38:30;6.07;;;1.05;;
42246;SDS011;27913;42.722;23.268;2022-11-20T07:40:56;3.67;;;0.80;;
42246;SDS011;27913;42.722;23.268;2022-11-20T07:43:26;3.78;;;0.85;;
42246;SDS011;27913;42.722;23.268;2022-11-20T07:45:54;3.33;;;0.80;;
42246;SDS011;27913;42.722;23.268;2022-11-20T07:48:20;2.17;;;0.52;;
42246;SDS011;27913;42.722;23.268;2022-11-20T07:50:46;4.38;;;0.60;;
42246;SDS011;27913;42.722;23.268;2022-11-20T07:53:11;4.72;;;0.95;;
42246;SDS011;27913;42.722;23.268;2022-11-20T07:55:38;5.15;;;1.50;;
42246;SDS011;27913;42.722;23.268;2022-11-20T07:58:05;6.43;;;1.45;;
42246;SDS011;27913;42.722;23.268;2022-11-20T08:00:31;8.15;;;3.47;;
42246;SDS011;27913;42.722;23.268;2022-11-20T08:02:56;4.30;;;0.70;;
42246;SDS011;27913;42.722;23.268;2022-11-20T08:05:22;1.90;;;0.80;;
42246;SDS011;27913;42.722;23.268;2022-11-20T08:07:47;3.03;;;0.60;;
42246;SDS011;27913;42.722;23.268;2022-11-20T08:10:13;4.00;;;0.70;;
42246;SDS011;27913;42.722;23.268;2022-11-20T08:12:44;3.05;;;1.05;;
42246;SDS011;27913;42.722;23.268;2022-11-20T08:15:33;6.93;;;1.10;;
42246;SDS011;27913;42.722;23.268;2022-11-20T08:18:02;3.88;;;0.82;;
42246;SDS011;27913;42.722;23.268;2022-11-20T08:20:29;1.83;;;0.80;;
42246;SDS011;27913;42.722;23.268;2022-11-20T08:22:59;7.68;;;1.75;;
42246;SDS011;27913;42.722;23.268;2022-11-20T08:25:26;3.37;;;0.80;;
42246;SDS011;27913;42.722;23.268;2022-11-20T08:27:52;4.82;;;1.00;;
42246;SDS011;27913;42.722;23.268;2022-11-20T08:30:17;5.25;;;1.23;;
42246;SDS011;27913;42.722;23.268;2022-11-20T08:32:43;3.33;;;0.68;;
42246;SDS011;27913;42.722;23.268;2022-11-20T08:35:09;4.35;;;0.70;;
42246;SDS011;27913;42.722;23.268;2022-11-20T08:37:34;7.18;;;1.00;;
42246;SDS011;27913;42.722;23.268;2022-11-20T08:40:00;2.00;;;0.70;;
42246;SDS011;27913;42.722;23.268;2022-11-20T08:42:25;5.10;;;1.13;;
42246;SDS011;27913;42.722;23.268;2022-11-20T08:44:50;6.30;;;0.90;;
42246;SDS011;27913;42.722;23.268;2022-11-20T08:47:16;2.65;;;0.70;;
42246;SDS011;27913;42.722;23.268;2022-11-20T08:49:41;4.32;;;1.05;;
42246;SDS011;27913;42.722;23.268;2022-11-20T08:52:07;5.53;;;1.48;;
42246;SDS011;27913;42.722;23.268;2022-11-20T08:54:32;5.53;;;1.05;;
42246;SDS011;27913;42.722;23.268;2022-11-20T08:56:58;4.47;;;1.20;;
42246;SDS011;27913;42.722;23.268;2022-11-20T08:59:23;5.32;;;0.90;;
42246;SDS011;27913;42.722;23.268;2022-11-20T09:01:49;3.47;;;1.00;;
42246;SDS011;27913;42.722;23.268;2022-11-20T09:04:15;9.10;;;1.33;;
42246;SDS011;27913;42.722;23.268;2022-11-20T09:06:40;3.33;;;1.08;;
42246;SDS011;27913;42.722;23.268;2022-11-20T09:09:06;2.35;;;0.80;;
42246;SDS011;27913;42.722;23.268;2022-11-20T09:11:31;2.05;;;0.85;;
42246;SDS011;27913;42.722;23.268;2022-11-20T09:13:57;3.75;;;1.17;;
42246;SDS011;27913;42.722;23.268;2022-11-20T09:16:23;6.47;;;1.67;;
42246;SDS011;27913;42.722;23.268;2022-11-20T09:18:49;4.88;;;0.95;;
42246;SDS011;27913;42.722;23.268;2022-11-20T09:21:15;6.35;;;0.93;;
42246;SDS011;27913;42.722;23.268;2022-11-20T09:23:41;6.70;;;1.35;;
42246;SDS011;27913;42.722;23.268;2022-11-20T09:26:09;5.90;;;0.90;;
42246;SDS011;27913;42.722;23.268;2022-11-20T09:28:36;5.65;;;1.00;;
42246;SDS011;27913;42.722;23.268;2022-11-20T09:31:08;6.72;;;1.52;;
42246;SDS011;27913;42.722;23.268;2022-11-20T09:33:39;9.35;;;1.83;;
42246;SDS011;27913;42.722;23.268;2022-11-20T09:36:04;4.00;;;1.02;;
42246;SDS011;27913;42.722;23.268;2022-11-20T09:38:30;5.05;;;1.00;;
42246;SDS011;27913;42.722;23.268;2022-11-20T09:40:57;1.45;;;0.63;;
42246;SDS011;27913;42.722;23.268;2022-11-20T09:46:07;9.48;;;1.60;;
42246;SDS011;27913;42.722;23.268;2022-11-20T09:56:53;2.22;;;0.77;;
42246;SDS011;27913;42.722;23.268;2022-11-20T09:59:27;5.85;;;1.00;;
42246;SDS011;27913;42.722;23.268;2022-11-20T10:01:59;9.60;;;1.65;;
42246;SDS011;27913;42.722;23.268;2022-11-20T10:04:28;3.17;;;0.90;;
42246;SDS011;27913;42.722;23.268;2022-11-20T10:07:17;4.57;;;1.17;;
42246;SDS011;27913;42.722;23.268;2022-11-20T10:09:52;8.85;;;1.88;;
42246;SDS011;27913;42.722;23.268;2022-11-20T10:23:33;6.43;;;1.38;;
42246;SDS011;27913;42.722;23.268;2022-11-20T10:26:16;9.25;;;1.10;;
42246;SDS011;27913;42.722;23.268;2022-11-20T10:28:56;9.60;;;2.08;;
42246;SDS011;27913;42.722;23.268;2022-11-20T10:31:33;9.93;;;1.60;;
42246;SDS011;27913;42.722;23.268;2022-11-20T10:34:04;5.75;;;1.80;;
42246;SDS011;27913;42.722;23.268;2022-11-20T10:36:38;7.95;;;1.65;;
42246;SDS011;27913;42.722;23.268;2022-11-20T10:42:11;8.27;;;1.50;;
42246;SDS011;27913;42.722;23.268;2022-11-20T10:44:43;6.55;;;1.80;;
42246;SDS011;27913;42.722;23.268;2022-11-20T10:47:26;6.35;;;1.55;;
42246;SDS011;27913;42.722;23.268;2022-11-20T10:49:55;13.18;;;1.80;;
42246;SDS011;27913;42.722;23.268;2022-11-20T10:53:02;7.75;;;1.35;;
42246;SDS011;27913;42.722;23.268;2022-11-20T11:01:19;6.88;;;0.93;;
42246;SDS011;27913;42.722;23.268;2022-11-20T11:03:51;5.82;;;1.00;;
42246;SDS011;27913;42.722;23.268;2022-11-20T11:09:10;3.60;;;0.57;;
42246;SDS011;27913;42.722;23.268;2022-11-20T11:11:41;2.92;;;0.60;;
42246;SDS011;27913;42.722;23.268;2022-11-20T11:14:10;1.35;;;0.38;;
42246;SDS011;27913;42.722;23.268;2022-11-20T11:16:48;1.88;;;0.40;;
42246;SDS011;27913;42.722;23.268;2022-11-20T11:19:15;1.05;;;0.35;;
42246;SDS011;27913;42.722;23.268;2022-11-20T11:21:47;0.95;;;0.45;;
42246;SDS011;27913;42.722;23.268;2022-11-20T11:24:21;2.80;;;0.47;;
42246;SDS011;27913;42.722;23.268;2022-11-20T11:27:11;1.35;;;0.45;;
42246;SDS011;27913;42.722;23.268;2022-11-20T11:29:37;1.50;;;0.60;;
42246;SDS011;27913;42.722;23.268;2022-11-20T11:32:07;4.25;;;1.05;;
42246;SDS011;27913;42.722;23.268;2022-11-20T11:34:40;3.38;;;0.50;;
42246;SDS011;27913;42.722;23.268;2022-11-20T11:37:10;0.93;;;0.30;;
42246;SDS011;27913;42.722;23.268;2022-11-20T11:39:42;3.05;;;0.70;;
42246;SDS011;27913;42.722;23.268;2022-11-20T11:42:11;3.10;;;0.52;;
42246;SDS011;27913;42.722;23.268;2022-11-20T11:44:44;1.92;;;0.35;;
42246;SDS011;27913;42.722;23.268;2022-11-20T11:47:36;2.47;;;0.63;;
42246;SDS011;27913;42.722;23.268;2022-11-20T11:55:09;2.13;;;0.47;;
42246;SDS011;27913;42.722;23.268;2022-11-20T12:08:13;3.55;;;0.70;;
42246;SDS011;27913;42.722;23.268;2022-11-20T12:10:54;2.33;;;0.40;;
42246;SDS011;27913;42.722;23.268;2022-11-20T12:13:30;4.88;;;0.77;;
42246;SDS011;27913;42.722;23.268;2022-11-20T12:15:58;1.95;;;0.43;;
42246;SDS011;27913;42.722;23.268;2022-11-20T12:18:23;1.48;;;0.55;;
42246;SDS011;27913;42.722;23.268;2022-11-20T12:23:42;3.90;;;0.60;;
42246;SDS011;27913;42.722;23.268;2022-11-20T12:40:44;4.88;;;0.80;;
42246;SDS011;27913;42.722;23.268;2022-11-20T12:43:24;4.80;;;0.98;;
42246;SDS011;27913;42.722;23.268;2022-11-20T12:46:16;3.45;;;1.40;;
42246;SDS011;27913;42.722;23.268;2022-11-20T12:49:12;19.90;;;5.53;;
42246;SDS011;27913;42.722;23.268;2022-11-20T12:51:54;4.82;;;1.20;;
42246;SDS011;27913;42.722;23.268;2022-11-20T13:02:27;4.38;;;1.27;;
42246;SDS011;27913;42.722;23.268;2022-11-20T13:07:43;2.28;;;0.82;;
42246;SDS011;27913;42.722;23.268;2022-11-20T13:10:21;9.55;;;3.08;;
42246;SDS011;27913;42.722;23.268;2022-11-20T13:16:05;4.45;;;1.52;;
42246;SDS011;27913;42.722;23.268;2022-11-20T13:18:50;5.18;;;1.83;;
42246;SDS011;27913;42.722;23.268;2022-11-20T13:21:17;10.02;;;2.15;;
42246;SDS011;27913;42.722;23.268;2022-11-20T13:23:45;8.98;;;2.30;;
42246;SDS011;27913;42.722;23.268;2022-11-20T13:26:18;7.30;;;2.83;;
42246;SDS011;27913;42.722;23.268;2022-11-20T13:28:47;11.75;;;2.28;;
42246;SDS011;27913;42.722;23.268;2022-11-20T13:31:34;3.80;;;0.90;;
42246;SDS011;27913;42.722;23.268;2022-11-20T13:34:02;2.30;;;0.70;;
42246;SDS011;27913;42.722;23.268;2022-11-20T13:36:30;12.82;;;4.35;;
42246;SDS011;27913;42.722;23.268;2022-11-20T13:38:57;5.07;;;1.02;;
42246;SDS011;27913;42.722;23.268;2022-11-20T13:41:26;5.78;;;1.10;;
42246;SDS011;27913;42.722;23.268;2022-11-20T13:43:59;2.50;;;0.95;;
42246;SDS011;27913;42.722;23.268;2022-11-20T13:46:39;2.42;;;0.63;;
42246;SDS011;27913;42.722;23.268;2022-11-20T13:49:10;1.33;;;0.65;;
42246;SDS011;27913;42.722;23.268;2022-11-20T13:51:43;3.92;;;0.98;;
42246;SDS011;27913;42.722;23.268;2022-11-20T14:00:16;4.55;;;1.17;;
42246;SDS011;27913;42.722;23.268;2022-11-20T14:02:26;3.67;;;1.25;;
42246;SDS011;27913;42.722;23.268;2022-11-20T14:04:56;2.75;;;0.93;;
42246;SDS011;27913;42.722;23.268;2022-11-20T14:07:27;4.07;;;1.10;;
42246;SDS011;27913;42.722;23.268;2022-11-20T14:10:01;3.75;;;0.88;;
42246;SDS011;27913;42.722;23.268;2022-11-20T14:12:28;4.38;;;0.75;;
42246;SDS011;27913;42.722;23.268;2022-11-20T14:14:55;1.23;;;0.52;;
42246;SDS011;27913;42.722;23.268;2022-11-20T14:17:23;2.47;;;0.50;;
42246;SDS011;27913;42.722;23.268;2022-11-20T14:19:54;3.75;;;1.00;;
42246;SDS011;27913;42.722;23.268;2022-11-20T14:22:30;4.18;;;0.80;;
42246;SDS011;27913;42.722;23.268;2022-11-20T14:27:33;4.38;;;0.93;;
42246;SDS011;27913;42.722;23.268;2022-11-20T14:30:02;0.25;;;0.25;;
42246;SDS011;27913;42.722;23.268;2022-11-20T14:32:28;1.30;;;0.63;;
42246;SDS011;27913;42.722;23.268;2022-11-20T14:34:55;0.90;;;0.32;;
42246;SDS011;27913;42.722;23.268;2022-11-20T14:37:27;0.40;;;0.28;;
42246;SDS011;27913;42.722;23.268;2022-11-20T14:39:57;3.33;;;1.37;;
42246;SDS011;27913;42.722;23.268;2022-11-20T14:42:27;3.78;;;1.20;;
42246;SDS011;27913;42.722;23.268;2022-11-20T14:44:57;4.05;;;1.38;;
42246;SDS011;27913;42.722;23.268;2022-11-20T14:47:28;8.02;;;2.70;;
42246;SDS011;27913;42.722;23.268;2022-11-20T14:49:56;15.50;;;4.43;;
42246;SDS011;27913;42.722;23.268;2022-11-20T14:52:25;12.60;;;4.85;;
42246;SDS011;27913;42.722;23.268;2022-11-20T14:54:58;5.38;;;1.67;;
42246;SDS011;27913;42.722;23.268;2022-11-20T14:57:28;2.72;;;1.05;;
42246;SDS011;27913;42.722;23.268;2022-11-20T15:02:33;2.95;;;1.10;;
42246;SDS011;27913;42.722;23.268;2022-11-20T15:05:00;3.70;;;1.40;;
42246;SDS011;27913;42.722;23.268;2022-11-20T15:08:10;2.30;;;0.90;;
42246;SDS011;27913;42.722;23.268;2022-11-20T15:10:29;7.93;;;2.45;;
42246;SDS011;27913;42.722;23.268;2022-11-20T15:13:24;2.83;;;0.90;;
42246;SDS011;27913;42.722;23.268;2022-11-20T15:15:55;2.28;;;0.85;;
42246;SDS011;27913;42.722;23.268;2022-11-20T15:18:23;5.80;;;1.27;;
42246;SDS011;27913;42.722;23.268;2022-11-20T15:20:54;3.00;;;0.93;;
42246;SDS011;27913;42.722;23.268;2022-11-20T15:23:21;4.10;;;1.00;;
42246;SDS011;27913;42.722;23.268;2022-11-20T15:25:47;3.60;;;0.95;;
42246;SDS011;27913;42.722;23.268;2022-11-20T15:28:16;1.83;;;0.47;;
42246;SDS011;27913;42.722;23.268;2022-11-20T15:30:42;5.60;;;1.92;;
42246;SDS011;27913;42.722;23.268;2022-11-20T15:33:08;5.95;;;1.83;;
42246;SDS011;27913;42.722;23.268;2022-11-20T15:35:34;1.98;;;0.88;;
42246;SDS011;27913;42.722;23.268;2022-11-20T15:38:00;2.97;;;0.75;;
42246;SDS011;27913;42.722;23.268;2022-11-20T15:40:25;4.85;;;1.10;;
42246;SDS011;27913;42.722;23.268;2022-11-20T15:42:51;0.88;;;0.47;;
42246;SDS011;27913;42.722;23.268;2022-11-20T15:45:29;4.82;;;0.90;;
42246;SDS011;27913;42.722;23.268;2022-11-20T15:47:59;1.35;;;0.60;;
42246;SDS011;27913;42.722;23.268;2022-11-20T15:50:27;5.85;;;1.08;;
42246;SDS011;27913;42.722;23.268;2022-11-20T15:52:59;4.72;;;1.48;;
42246;SDS011;27913;42.722;23.268;2022-11-20T15:55:24;4.40;;;1.25;;
42246;SDS011;27913;42.722;23.268;2022-11-20T15:57:50;1.85;;;0.70;;
42246;SDS011;27913;42.722;23.268;2022-11-20T16:00:15;1.85;;;0.73;;
42246;SDS011;27913;42.722;23.268;2022-11-20T16:02:41;3.03;;;0.60;;
42246;SDS011;27913;42.722;23.268;2022-11-20T16:05:09;4.57;;;0.75;;
42246;SDS011;27913;42.722;23.268;2022-11-20T16:07:37;2.72;;;0.75;;
42246;SDS011;27913;42.722;23.268;2022-11-20T16:10:02;3.58;;;1.63;;
42246;SDS011;27913;42.722;23.268;2022-11-20T16:12:28;9.35;;;4.22;;
42246;SDS011;27913;42.722;23.268;2022-11-20T16:15:12;12.48;;;4.53;;
42246;SDS011;27913;42.722;23.268;2022-11-20T16:17:56;10.45;;;3.85;;
42246;SDS011;27913;42.722;23.268;2022-11-20T16:20:22;17.33;;;6.20;;
42246;SDS011;27913;42.722;23.268;2022-11-20T16:22:47;7.15;;;2.83;;
42246;SDS011;27913;42.722;23.268;2022-11-20T16:25:13;7.32;;;2.60;;
42246;SDS011;27913;42.722;23.268;2022-11-20T16:27:38;10.45;;;3.15;;